Highbridge, New York
Current Conditions -  °F | °C
As of 9:51 AM on Saturday 20 Dec 2014 (Local Time) from KNYC Reporting Station
Overcast Overcast  
Wind Chill: 31°   Ceiling: 2600
Heat Index: 31°   Visibility: 10mi
Dew Point: 18°   Wind: 0mph
Humidity: 59%   Direction: NA
Pressure: 30.33"   Gusts: NA
Location:  40.8376°N, 73.9236°W
Report Text: KNYC 201451Z AUTO 00000KT 10SM OVC026 M01/M08 A3033 RMK AO2 SLP262 T10061078 53015 $
Loading
Personal Weather Stations






























Interactive Weather Map New forecast layout! Learn more

10-Day Weather Forecast

Advertisements
Track Severe Weather on mobile